Terminal Aerodrome Forecast
Issued by NWS Buffalo, NY

Home | Current Version | Previous Version | Text Only | Print | Product List | Glossary On
Versions: 1 2 3 4 5 6 7 8 9 10 11 12 13 14 15 16 17 18 19 20 21 22 23 24 25 26 27 28 29 30 31 32 33
429
FTUS41 KBUF 140307 AAA
TAFART
TAF AMD
KART 140307Z 1403/1424 02006KT P6SM SCT025
     FM141400 34004KT P6SM SCT025
     FM141800 24006KT P6SM SKC=

USA.gov is the U.S. government's official web portal to all federal, state and local government web resources and services.